Terminal Aerodrome Forecast
Issued by NWS Pueblo, CO

Home | Current Version | Previous Version | Text Only | Print | Product List | Glossary On
Versions: 1 2 3 4 5 6 7 8 9 10 11 12 13 14 15 16 17 18 19 20 21 22 23 24 25 26 27 28 29 30 31 32 33 34 35 36 37 38 39 40 41 42 43
000
FTUS45 KPUB 282320
TAFCOS
TAF
KCOS 282320Z 2900/2924 16007KT P6SM VCTS SCT040CB BKN150
      TEMPO 2900/2903 4SM TSRA BKN025CB
     FM290300 14008KT P6SM SCT050 BKN120
     FM291100 VRB05KT P6SM SCT025 BKN060
      TEMPO 2911/2915 BKN025
     FM291600 14008KT P6SM SCT050
     FM292000 15010KT P6SM SCT040CB BKN080=

USA.gov is the U.S. government's official web portal to all federal, state and local government web resources and services.